Terra Ceia, Florida
Current Conditions -  °F | °C
As of 1:53 AM on Monday 24 Nov 2014 (Local Time) from KSRQ Reporting Station
Overcast Overcast  
Wind Chill: 76°   Ceiling: 800
Heat Index: 76°   Visibility: 10mi
Dew Point: 74°   Wind: 16mph
Humidity: 94%   Direction: 170°S
Pressure: 29.9"   Gusts: NA
Location:  27.58°N, 82.58°W
Report Text: KSRQ 240653Z 17014KT 10SM OVC008 24/23 A2990 RMK AO2 CIG 006V011 SLP124 T02440233
Loading
Personal Weather Stations






























Interactive Weather Map New forecast layout! Learn more

10-Day Weather Forecast

Advertisements
Track Severe Weather on mobile